TimeCST,TemperatureF,Dew PointF,Humidity,Sea Level PressureIn,VisibilityMPH,Wind Direction,Wind SpeedMPH,Gust SpeedMPH,PrecipitationIn,Events,Conditions,WindDirDegrees,DateUTC
12:15 AM,41.0,41.0,100,30.21,10.0,Calm,Calm,-,N/A,,Clear,0,2012-11-20 06:15:00
12:35 AM,41.0,39.2,93,30.21,10.0,Calm,Calm,-,N/A,,Clear,0,2012-11-20 06:35:00
12:55 AM,41.0,39.2,93,30.20,10.0,Calm,Calm,-,N/A,,Clear,0,2012-11-20 06:55:00
1:15 AM,41.0,39.2,93,30.20,10.0,Calm,Calm,-,N/A,,Clear,0,2012-11-20 07:15:00
1:55 AM,41.0,39.2,93,30.20,10.0,Calm,Calm,-,N/A,,Clear,0,2012-11-20 07:55:00
2:15 AM,41.0,39.2,93,30.19,10.0,Calm,Calm,-,N/A,,Scattered Clouds,0,2012-11-20 08:15:00
2:35 AM,41.0,39.2,93,30.18,10.0,Calm,Calm,-,N/A,,Scattered Clouds,0,2012-11-20 08:35:00
6:15 AM,42.8,42.8,100,30.21,10.0,Calm,Calm,-,N/A,,Mostly Cloudy,0,2012-11-20 12:15:00
6:35 AM,42.8,42.8,100,30.21,10.0,Calm,Calm,-,N/A,,Overcast,0,2012-11-20 12:35:00
6:55 AM,42.8,42.8,100,30.22,10.0,Calm,Calm,-,N/A,,Overcast,0,2012-11-20 12:55:00
7:15 AM,44.6,44.6,100,30.22,10.0,Calm,Calm,-,N/A,,Overcast,0,2012-11-20 13:15:00
7:35 AM,46.4,44.6,93,30.22,10.0,Calm,Calm,-,N/A,,Mostly Cloudy,0,2012-11-20 13:35:00
7:55 AM,48.2,44.6,87,30.22,10.0,Calm,Calm,-,N/A,,Overcast,0,2012-11-20 13:55:00
8:15 AM,50.0,44.6,82,30.22,10.0,Calm,Calm,-,N/A,,Overcast,0,2012-11-20 14:15:00
8:35 AM,51.8,44.6,76,30.22,10.0,Calm,Calm,-,N/A,,Mostly Cloudy,0,2012-11-20 14:35:00
8:55 AM,55.4,44.6,67,30.22,10.0,Calm,Calm,-,N/A,,Scattered Clouds,0,2012-11-20 14:55:00
9:15 AM,57.2,44.6,63,30.21,10.0,Calm,Calm,-,N/A,,Scattered Clouds,0,2012-11-20 15:15:00
9:35 AM,60.8,44.6,55,30.21,10.0,Calm,Calm,-,N/A,,Clear,0,2012-11-20 15:35:00
9:55 AM,60.8,41.0,48,30.21,10.0,NW,4.6,-,N/A,,Clear,310,2012-11-20 15:55:00
10:15 AM,62.6,41.0,45,30.20,10.0,NW,3.5,-,N/A,,Clear,320,2012-11-20 16:15:00
10:35 AM,64.4,41.0,42,30.19,10.0,NW,6.9,-,N/A,,Clear,310,2012-11-20 16:35:00
10:55 AM,64.4,41.0,42,30.18,10.0,NW,6.9,-,N/A,,Clear,320,2012-11-20 16:55:00
11:15 AM,64.4,39.2,40,30.17,10.0,NW,8.1,-,N/A,,Clear,320,2012-11-20 17:15:00
11:35 AM,68.0,39.2,35,30.16,10.0,NW,3.5,-,N/A,,Scattered Clouds,320,2012-11-20 17:35:00
11:55 AM,66.2,37.4,35,30.16,10.0,NNW,8.1,-,N/A,,Overcast,340,2012-11-20 17:55:00
12:15 PM,68.0,37.4,33,30.15,10.0,WNW,6.9,-,N/A,,Overcast,300,2012-11-20 18:15:00
12:35 PM,66.2,35.6,32,30.15,10.0,WNW,8.1,-,N/A,,Overcast,300,2012-11-20 18:35:00
12:55 PM,66.2,33.8,30,30.14,10.0,WNW,5.8,-,N/A,,Overcast,300,2012-11-20 18:55:00
1:15 PM,68.0,33.8,28,30.13,10.0,NW,5.8,-,N/A,,Overcast,320,2012-11-20 19:15:00
1:35 PM,68.0,32.0,26,30.13,10.0,West,4.6,-,N/A,,Overcast,280,2012-11-20 19:35:00
1:55 PM,68.0,33.8,28,30.12,10.0,NW,4.6,-,N/A,,Overcast,320,2012-11-20 19:55:00
2:15 PM,68.0,35.6,30,30.11,10.0,Calm,Calm,-,N/A,,Scattered Clouds,0,2012-11-20 20:15:00
2:35 PM,68.0,37.4,33,30.11,10.0,NW,3.5,-,N/A,,Mostly Cloudy,320,2012-11-20 20:35:00
3:15 PM,68.0,37.4,33,30.10,10.0,WNW,4.6,-,N/A,,Clear,290,2012-11-20 21:15:00
3:35 PM,68.0,37.4,33,30.10,10.0,WNW,4.6,-,N/A,,Clear,300,2012-11-20 21:35:00
3:55 PM,68.0,37.4,33,30.10,10.0,WNW,4.6,-,N/A,,Clear,300,2012-11-20 21:55:00
4:15 PM,64.4,39.2,40,30.10,10.0,WNW,5.8,-,N/A,,Scattered Clouds,300,2012-11-20 22:15:00
4:35 PM,62.6,41.0,45,30.10,10.0,NW,3.5,-,N/A,,Overcast,320,2012-11-20 22:35:00
4:55 PM,60.8,39.2,45,30.10,10.0,WNW,3.5,-,N/A,,Mostly Cloudy,300,2012-11-20 22:55:00
5:15 PM,55.4,41.0,58,30.10,10.0,WNW,3.5,-,N/A,,Scattered Clouds,290,2012-11-20 23:15:00
5:35 PM,55.4,41.0,58,30.10,10.0,West,3.5,-,N/A,,Clear,260,2012-11-20 23:35:00
5:55 PM,53.6,41.0,62,30.11,10.0,Calm,Calm,-,N/A,,Clear,0,2012-11-20 23:55:00
6:15 PM,51.8,41.0,67,30.11,10.0,Calm,Calm,-,N/A,,Clear,0,2012-11-21 00:15:00
6:35 PM,51.8,41.0,67,30.12,10.0,Calm,Calm,-,N/A,,Clear,0,2012-11-21 00:35:00
6:55 PM,50.0,41.0,71,30.12,10.0,Calm,Calm,-,N/A,,Clear,0,2012-11-21 00:55:00
7:15 PM,48.2,41.0,76,30.13,10.0,Calm,Calm,-,N/A,,Clear,0,2012-11-21 01:15:00
7:35 PM,48.2,41.0,76,30.13,10.0,Calm,Calm,-,N/A,,Clear,0,2012-11-21 01:35:00
7:55 PM,46.4,41.0,81,30.13,10.0,Calm,Calm,-,N/A,,Clear,0,2012-11-21 01:55:00
8:15 PM,46.4,41.0,81,30.14,10.0,Calm,Calm,-,N/A,,Clear,0,2012-11-21 02:15:00
8:35 PM,46.4,41.0,81,30.14,10.0,Calm,Calm,-,N/A,,Clear,0,2012-11-21 02:35:00
8:55 PM,44.6,39.2,81,30.14,10.0,Calm,Calm,-,N/A,,Clear,0,2012-11-21 02:55:00
9:15 PM,44.6,41.0,87,30.14,10.0,Calm,Calm,-,N/A,,Clear,0,2012-11-21 03:15:00
9:35 PM,44.6,39.2,81,30.14,10.0,Calm,Calm,-,N/A,,Clear,0,2012-11-21 03:35:00
9:55 PM,44.6,41.0,87,30.14,10.0,Calm,Calm,-,N/A,,Clear,0,2012-11-21 03:55:00
10:15 PM,44.6,39.2,81,30.14,10.0,Calm,Calm,-,N/A,,Clear,0,2012-11-21 04:15:00
10:35 PM,44.6,39.2,81,30.14,10.0,Calm,Calm,-,N/A,,Mostly Cloudy,0,2012-11-21 04:35:00
10:55 PM,44.6,41.0,87,30.14,10.0,Calm,Calm,-,N/A,,Overcast,0,2012-11-21 04:55:00
11:15 PM,44.6,41.0,87,30.14,10.0,Calm,Calm,-,N/A,,Mostly Cloudy,0,2012-11-21 05:15:00
11:35 PM,44.6,39.2,81,30.14,10.0,Calm,Calm,-,N/A,,Scattered Clouds,0,2012-11-21 05:35:00
11:55 PM,42.8,41.0,93,30.13,10.0,Calm,Calm,-,N/A,,Clear,0,2012-11-21 05:55:00